createdAt,value
2022-08-03T00:00:39.421Z,32.16
2022-08-03T00:03:35.194Z,32.05
2022-08-03T00:06:17.440Z,32.22
2022-08-03T00:09:06.428Z,32.19
2022-08-03T00:11:48.421Z,32.15
2022-08-03T00:14:40.166Z,32.10
2022-08-03T00:17:22.348Z,32.14
2022-08-03T00:20:11.213Z,32.06
2022-08-03T00:22:53.792Z,32.14
2022-08-03T00:25:42.438Z,32.18
2022-08-03T00:28:31.711Z,32.17
2022-08-03T00:31:14.439Z,32.11
2022-08-03T00:33:57.903Z,32.11
2022-08-03T00:36:48.453Z,32.19
2022-08-03T00:39:30.227Z,32.16
2022-08-03T00:42:20.175Z,32.15
2022-08-03T00:45:02.608Z,32.22
2022-08-03T00:47:51.413Z,32.28
2022-08-03T00:50:43.592Z,32.43
2022-08-03T00:53:26.420Z,32.48
2022-08-03T00:56:08.785Z,32.60
2022-08-03T00:59:00.425Z,32.49
2022-08-03T01:01:42.283Z,32.60
2022-08-03T01:04:31.168Z,32.73
2022-08-03T01:07:30.594Z,32.82
2022-08-03T01:10:39.227Z,32.85
2022-08-03T01:13:59.934Z,32.99
2022-08-03T01:17:07.144Z,32.90
2022-08-03T01:20:14.767Z,32.95
2022-08-03T01:23:32.436Z,33.06
2022-08-03T01:26:32.781Z,33.12
2022-08-03T01:29:54.165Z,33.20
2022-08-03T01:33:02.301Z,33.25
2022-08-03T01:36:15.397Z,33.32
2022-08-03T01:39:01.969Z,33.29
2022-08-03T01:41:59.189Z,33.44
2022-08-03T01:44:49.932Z,33.48
2022-08-03T01:47:39.181Z,33.70
2022-08-03T01:50:23.448Z,33.88
2022-08-03T01:53:15.409Z,33.94
2022-08-03T01:56:09.427Z,33.97
2022-08-03T01:58:54.184Z,34.05
2022-08-03T02:02:28.592Z,34.09
2022-08-03T02:04:48.556Z,34.35
2022-08-03T02:07:41.227Z,34.31
2022-08-03T02:10:35.467Z,34.20
2022-08-03T02:13:26.187Z,34.40
2022-08-03T02:16:15.472Z,34.12
2022-08-03T02:18:58.697Z,34.80
2022-08-03T02:21:56.785Z,35.20
2022-08-03T02:24:44.449Z,35.14
2022-08-03T02:27:49.436Z,35.54
2022-08-03T02:30:43.725Z,35.75
2022-08-03T02:33:32.188Z,35.64
2022-08-03T02:36:22.692Z,35.76
2022-08-03T02:39:08.404Z,35.47
2022-08-03T02:41:56.482Z,35.67
2022-08-03T02:44:49.179Z,35.97
2022-08-03T02:47:53.402Z,35.93
2022-08-03T02:50:38.175Z,35.47
2022-08-03T02:53:22.555Z,35.54
2022-08-03T02:56:13.181Z,35.63
2022-08-03T02:59:04.159Z,35.90
2022-08-03T03:01:54.426Z,36.21
2022-08-03T03:05:50.917Z,36.56
2022-08-03T03:07:51.990Z,36.37
2022-08-03T03:10:42.361Z,36.16
2022-08-03T03:13:27.082Z,36.49
2022-08-03T03:16:16.159Z,36.67
2022-08-03T03:18:59.452Z,36.65
2022-08-03T03:21:48.414Z,36.83
2022-08-03T03:24:32.689Z,36.60
2022-08-03T03:27:23.429Z,36.94
2022-08-03T03:30:20.010Z,37.24
2022-08-03T03:33:14.404Z,37.13
2022-08-03T03:36:03.430Z,37.23
2022-08-03T03:38:45.432Z,37.10
2022-08-03T03:41:34.412Z,36.96
2022-08-03T03:44:16.676Z,37.46
2022-08-03T03:47:08.223Z,37.83
2022-08-03T03:49:50.460Z,37.79
2022-08-03T03:52:41.155Z,37.82
2022-08-03T03:55:26.619Z,36.89
2022-08-03T03:58:15.397Z,36.41
2022-08-03T04:00:57.409Z,36.61
2022-08-03T04:03:46.162Z,36.86
2022-08-03T04:06:46.838Z,36.46
2022-08-03T04:09:53.391Z,36.51
2022-08-03T04:12:38.454Z,36.02
2022-08-03T04:15:41.176Z,35.80
2022-08-03T04:18:25.621Z,35.89
2022-08-03T04:21:18.201Z,36.52
2022-08-03T04:24:03.485Z,36.49
2022-08-03T04:26:53.416Z,35.84
2022-08-03T04:29:39.996Z,35.86
2022-08-03T04:32:46.035Z,35.68
2022-08-03T04:36:01.033Z,36.19
2022-08-03T04:38:44.421Z,36.18
2022-08-03T04:42:04.384Z,35.66
2022-08-03T04:44:39.490Z,35.13
2022-08-03T04:47:28.170Z,34.66
2022-08-03T04:50:15.040Z,34.10
2022-08-03T04:53:19.510Z,33.78
2022-08-03T04:56:08.172Z,33.65
2022-08-03T04:58:50.631Z,33.58
2022-08-03T05:01:39.263Z,33.49
2022-08-03T05:04:21.874Z,33.22
2022-08-03T05:07:11.612Z,33.13
2022-08-03T05:10:03.204Z,33.40
2022-08-03T05:12:46.425Z,33.39
2022-08-03T05:15:34.438Z,33.44
2022-08-03T05:18:24.419Z,33.48
2022-08-03T05:21:13.175Z,33.62
2022-08-03T05:23:55.409Z,33.68
2022-08-03T05:26:44.404Z,33.74
2022-08-03T05:29:26.349Z,33.96
2022-08-03T05:32:15.520Z,33.88
2022-08-03T05:35:57.920Z,33.51
2022-08-03T05:38:20.879Z,33.66
2022-08-03T05:41:36.524Z,33.66
2022-08-03T05:44:26.651Z,34.03
2022-08-03T05:47:08.405Z,34.72
2022-08-03T05:49:56.574Z,34.79
2022-08-03T05:52:38.158Z,34.33
2022-08-03T05:55:27.404Z,34.66
2022-08-03T05:58:10.454Z,35.04
2022-08-03T06:01:00.158Z,34.68
2022-08-03T06:03:42.738Z,35.76
2022-08-03T06:06:32.372Z,35.86
2022-08-03T06:09:14.429Z,36.09
2022-08-03T06:12:03.151Z,36.59
2022-08-03T06:14:45.686Z,36.68
2022-08-03T06:17:37.750Z,36.97
2022-08-03T06:20:19.942Z,36.66
2022-08-03T06:23:08.218Z,36.98
2022-08-03T06:25:58.498Z,36.76
2022-08-03T06:28:52.637Z,36.88
2022-08-03T06:31:36.656Z,36.95
2022-08-03T06:34:34.056Z,36.17
2022-08-03T06:37:17.509Z,36.90
2022-08-03T06:40:06.407Z,37.34
2022-08-03T06:42:49.909Z,36.27
2022-08-03T06:45:39.279Z,36.75
2022-08-03T06:48:21.574Z,37.22
2022-08-03T06:51:10.468Z,37.05
2022-08-03T06:53:52.385Z,36.62
2022-08-03T06:56:41.694Z,36.42
2022-08-03T07:00:09.187Z,36.36
2022-08-03T07:02:32.457Z,36.28
2022-08-03T07:05:16.771Z,36.40
2022-08-03T07:08:07.152Z,36.19
2022-08-03T07:10:49.643Z,36.04
2022-08-03T07:13:38.149Z,36.15
2022-08-03T07:16:21.147Z,36.23
2022-08-03T07:19:10.424Z,36.36
2022-08-03T07:21:53.663Z,36.41
2022-08-03T07:24:41.210Z,36.31
2022-08-03T07:27:24.896Z,36.37
2022-08-03T07:30:17.407Z,36.70
2022-08-03T07:33:06.132Z,36.63
2022-08-03T07:36:03.422Z,36.72
2022-08-03T07:38:45.161Z,36.66
2022-08-03T07:41:34.428Z,37.11
2022-08-03T07:44:16.719Z,37.35
2022-08-03T07:47:05.150Z,37.51
2022-08-03T07:49:52.454Z,37.02
2022-08-03T07:52:57.173Z,37.01
2022-08-03T07:55:39.864Z,37.73
2022-08-03T07:58:34.168Z,37.93
2022-08-03T08:01:27.297Z,37.94
2022-08-03T08:04:16.143Z,37.75
2022-08-03T08:07:05.187Z,37.92
2022-08-03T08:09:47.658Z,37.20
2022-08-03T08:12:36.196Z,37.06
2022-08-03T08:15:25.919Z,37.71
2022-08-03T08:18:10.146Z,37.90
2022-08-03T08:21:11.598Z,37.89
2022-08-03T08:24:19.716Z,37.80
2022-08-03T08:27:09.161Z,37.97
2022-08-03T08:29:54.604Z,37.79
2022-08-03T08:32:38.400Z,37.86
2022-08-03T08:35:34.186Z,37.42
2022-08-03T08:38:16.259Z,37.92
2022-08-03T08:41:05.425Z,37.91
2022-08-03T08:43:47.601Z,37.88
2022-08-03T08:46:42.126Z,36.81
2022-08-03T08:49:29.153Z,35.50
2022-08-03T08:52:25.142Z,35.84
2022-08-03T08:55:24.439Z,35.46
2022-08-03T08:58:20.811Z,35.87
2022-08-03T09:01:10.243Z,35.58
2022-08-03T09:03:54.301Z,35.76
2022-08-03T09:06:58.560Z,35.65
2022-08-03T09:10:10.671Z,35.82
2022-08-03T09:12:55.175Z,35.30
2022-08-03T09:16:01.206Z,35.56
2022-08-03T09:18:43.394Z,35.10
2022-08-03T09:21:35.021Z,35.39
2022-08-03T09:24:37.330Z,35.23
2022-08-03T09:27:27.666Z,35.03
2022-08-03T09:30:33.133Z,35.07
2022-08-03T09:33:26.460Z,35.03
2022-08-03T09:36:52.192Z,34.88
2022-08-03T09:39:47.448Z,34.91
2022-08-03T09:42:29.728Z,34.85
2022-08-03T09:45:12.406Z,34.97
2022-08-03T09:48:00.973Z,34.86
2022-08-03T09:51:12.482Z,34.74
2022-08-03T09:54:00.454Z,34.47
2022-08-03T09:57:00.137Z,34.33
2022-08-03T09:59:42.178Z,34.42
2022-08-03T10:02:41.418Z,34.31
2022-08-03T10:05:45.363Z,34.40
2022-08-03T10:08:28.383Z,34.31
2022-08-03T10:11:18.719Z,34.46
2022-08-03T10:14:01.515Z,34.32
2022-08-03T10:16:50.133Z,34.24
2022-08-03T10:19:39.151Z,33.88
2022-08-03T10:22:25.014Z,33.94
2022-08-03T10:25:33.249Z,34.02
2022-08-03T10:28:19.708Z,33.89
2022-08-03T10:31:10.559Z,33.85
2022-08-03T10:33:53.940Z,34.07
2022-08-03T10:36:46.452Z,33.93
2022-08-03T10:39:31.760Z,34.02
2022-08-03T10:42:21.162Z,34.17
2022-08-03T10:45:27.844Z,33.92
2022-08-03T10:48:10.115Z,34.04
2022-08-03T10:50:53.201Z,34.20
2022-08-03T10:53:55.842Z,34.20
2022-08-03T10:57:06.314Z,34.23
2022-08-03T11:00:07.595Z,34.26
2022-08-03T11:03:17.415Z,34.20
2022-08-03T11:06:06.317Z,34.30
2022-08-03T11:08:56.464Z,34.27
2022-08-03T11:11:39.204Z,34.28
2022-08-03T11:14:30.397Z,34.37
2022-08-03T11:17:16.987Z,34.15
2022-08-03T11:20:06.170Z,33.86
2022-08-03T11:23:00.409Z,33.66
2022-08-03T11:26:40.424Z,34.09
2022-08-03T11:29:43.408Z,34.09
2022-08-03T11:32:49.044Z,33.60
2022-08-03T11:35:53.202Z,33.54
2022-08-03T11:38:48.148Z,33.63
2022-08-03T11:41:44.835Z,33.99
2022-08-03T11:44:56.396Z,34.17
2022-08-03T11:47:50.145Z,34.22
2022-08-03T11:50:40.162Z,34.26
2022-08-03T11:53:22.888Z,34.24
2022-08-03T11:56:14.400Z,34.12
2022-08-03T11:59:19.964Z,34.32
2022-08-03T12:02:29.201Z,34.55
2022-08-03T12:05:18.385Z,33.94
2022-08-03T12:08:03.714Z,33.96
2022-08-03T12:11:00.077Z,33.84
2022-08-03T12:14:30.063Z,33.99
2022-08-03T12:17:02.144Z,33.96
2022-08-03T12:19:50.838Z,33.73
2022-08-03T12:22:43.409Z,33.86
2022-08-03T12:25:39.178Z,33.78
2022-08-03T12:28:37.680Z,33.85
2022-08-03T12:31:20.408Z,33.96
2022-08-03T12:34:16.422Z,33.96
2022-08-03T12:37:29.883Z,33.84
2022-08-03T12:40:17.827Z,33.86
2022-08-03T12:43:11.158Z,33.53
2022-08-03T12:45:53.478Z,33.39
2022-08-03T12:48:42.406Z,33.45
2022-08-03T12:51:24.602Z,33.79
2022-08-03T12:54:14.164Z,33.77
2022-08-03T12:57:15.953Z,33.59
2022-08-03T13:00:29.174Z,33.51
2022-08-03T13:03:39.664Z,33.66
2022-08-03T13:06:26.427Z,33.32
2022-08-03T13:09:22.393Z,33.24
2022-08-03T13:12:15.178Z,33.38
2022-08-03T13:15:00.390Z,33.30
2022-08-03T13:17:49.133Z,33.40
2022-08-03T13:20:39.428Z,33.39
2022-08-03T13:23:28.450Z,33.37
2022-08-03T13:26:17.159Z,33.39
2022-08-03T13:29:06.409Z,33.21
2022-08-03T13:31:50.471Z,33.24
2022-08-03T13:34:40.427Z,33.28
2022-08-03T13:37:36.238Z,33.32
2022-08-03T13:40:32.635Z,33.05
2022-08-03T13:43:17.344Z,33.15
2022-08-03T13:46:06.428Z,32.89
2022-08-03T13:48:48.600Z,32.96
2022-08-03T13:51:37.389Z,33.26
2022-08-03T13:54:20.593Z,33.12
2022-08-03T13:58:03.456Z,33.25
2022-08-03T14:00:26.378Z,33.19
2022-08-03T14:03:14.808Z,33.06
2022-08-03T14:06:04.204Z,33.14
2022-08-03T14:08:46.841Z,33.06
2022-08-03T14:12:07.602Z,33.16
2022-08-03T14:14:44.145Z,33.18
2022-08-03T14:17:26.638Z,33.17
2022-08-03T14:20:37.959Z,33.07
2022-08-03T14:23:36.732Z,33.01
2022-08-03T14:26:19.412Z,33.16
2022-08-03T14:29:01.264Z,33.01
2022-08-03T14:32:10.833Z,33.02
2022-08-03T14:34:59.703Z,33.01
2022-08-03T14:37:48.506Z,32.98
2022-08-03T14:40:46.804Z,33.09
2022-08-03T14:43:39.110Z,32.89
2022-08-03T14:46:21.695Z,32.87
2022-08-03T14:50:31.257Z,32.85
2022-08-03T14:52:13.549Z,32.93
2022-08-03T14:55:02.403Z,32.95
2022-08-03T14:57:44.594Z,32.78
2022-08-03T15:00:33.162Z,32.74
2022-08-03T15:03:16.909Z,32.80
2022-08-03T15:06:06.164Z,32.76
2022-08-03T15:09:06.277Z,32.66
2022-08-03T15:11:59.173Z,32.61
2022-08-03T15:14:41.515Z,32.62
2022-08-03T15:17:30.184Z,32.53
2022-08-03T15:20:25.476Z,32.46
2022-08-03T15:23:23.139Z,32.34
2022-08-03T15:26:31.915Z,32.48
2022-08-03T15:30:06.739Z,32.55
2022-08-03T15:32:30.175Z,32.58
2022-08-03T15:35:12.341Z,32.62
2022-08-03T15:38:02.493Z,32.53
2022-08-03T15:41:02.257Z,32.37
2022-08-03T15:43:51.154Z,32.42
2022-08-03T15:46:33.631Z,32.37
2022-08-03T15:49:23.414Z,32.22
2022-08-03T15:52:05.567Z,32.16
2022-08-03T15:54:54.431Z,32.32
2022-08-03T15:59:03.833Z,32.28
2022-08-03T16:00:45.883Z,32.23
2022-08-03T16:03:29.226Z,32.21
2022-08-03T16:06:18.127Z,32.17
2022-08-03T16:09:24.153Z,32.19
2022-08-03T16:12:22.402Z,32.17
2022-08-03T16:15:04.785Z,32.14
2022-08-03T16:17:53.406Z,32.08
2022-08-03T16:20:35.844Z,32.13
2022-08-03T16:23:29.483Z,32.16
2022-08-03T16:26:16.615Z,32.13
2022-08-03T16:29:05.420Z,32.09
2022-08-03T16:32:14.129Z,32.15
2022-08-03T16:35:03.362Z,32.21
2022-08-03T16:37:54.566Z,32.32
2022-08-03T16:40:53.024Z,32.46
2022-08-03T16:43:43.450Z,32.42
2022-08-03T16:46:25.697Z,32.40
2022-08-03T16:49:53.662Z,32.37
2022-08-03T16:52:23.424Z,32.25
2022-08-03T16:55:07.654Z,32.15
2022-08-03T16:57:59.869Z,32.23
2022-08-03T17:00:51.136Z,32.20
2022-08-03T17:03:42.765Z,32.13
2022-08-03T17:06:48.128Z,32.11
2022-08-03T17:09:38.852Z,32.08
2022-08-03T17:12:28.371Z,32.03
2022-08-03T17:15:19.158Z,31.96
2022-08-03T17:18:22.077Z,31.91
2022-08-03T17:21:13.176Z,31.99
2022-08-03T17:24:05.359Z,31.94
2022-08-03T17:26:57.214Z,31.95
2022-08-03T17:29:45.148Z,31.95
2022-08-03T17:32:34.196Z,31.85
2022-08-03T17:35:17.494Z,31.85
2022-08-03T17:38:13.745Z,31.93
2022-08-03T17:44:15.668Z,31.90
2022-08-03T17:47:06.544Z,31.89
2022-08-03T17:49:48.220Z,31.99
2022-08-03T17:52:57.649Z,31.89
2022-08-03T17:55:55.169Z,31.84
2022-08-03T17:59:08.324Z,31.80
2022-08-03T18:02:30.760Z,31.79
2022-08-03T18:06:10.515Z,31.78
2022-08-03T18:09:05.349Z,31.78
2022-08-03T18:12:08.121Z,31.84
2022-08-03T18:15:01.132Z,31.82
2022-08-03T18:21:17.147Z,31.88
2022-08-03T18:24:00.433Z,31.87
2022-08-03T18:26:48.916Z,31.81
2022-08-03T18:29:39.399Z,31.69
2022-08-03T18:32:21.472Z,31.61
2022-08-03T18:35:17.398Z,31.45
2022-08-03T18:38:10.355Z,31.23
2022-08-03T18:41:07.088Z,31.35
2022-08-03T18:44:07.070Z,31.49
2022-08-03T18:47:51.770Z,31.77
2022-08-03T18:50:50.216Z,31.72
2022-08-03T18:54:03.470Z,31.64
2022-08-03T18:56:54.780Z,31.67
2022-08-03T19:00:42.426Z,31.66
2022-08-03T19:03:43.524Z,31.73
2022-08-03T19:06:29.995Z,31.76
2022-08-03T19:09:28.739Z,31.58
2022-08-03T19:12:28.168Z,31.63
2022-08-03T19:15:36.999Z,31.59
2022-08-03T19:18:29.395Z,31.61
2022-08-03T19:21:15.536Z,31.59
2022-08-03T19:24:09.693Z,31.47
2022-08-03T19:26:55.146Z,31.56
2022-08-03T19:29:58.811Z,31.52
2022-08-03T19:32:50.424Z,31.46
2022-08-03T19:35:52.214Z,31.43
2022-08-03T19:38:39.392Z,31.47
2022-08-03T19:41:41.602Z,31.55
2022-08-03T19:44:37.156Z,31.55
2022-08-03T19:47:46.139Z,31.54
2022-08-03T19:53:43.214Z,31.41
2022-08-03T19:56:35.168Z,31.30
2022-08-03T19:59:18.825Z,31.43
2022-08-03T20:02:07.389Z,31.48
2022-08-03T20:05:00.061Z,31.40
2022-08-03T20:07:49.126Z,31.44
2022-08-03T20:10:31.737Z,31.42
2022-08-03T20:13:23.158Z,31.31
2022-08-03T20:16:11.424Z,31.26
2022-08-03T20:19:00.477Z,31.29
2022-08-03T20:21:44.304Z,31.28
2022-08-03T20:24:40.144Z,31.29
2022-08-03T20:28:06.677Z,31.15
2022-08-03T20:30:38.579Z,31.11
2022-08-03T20:33:46.687Z,31.15
2022-08-03T20:36:31.237Z,31.09
2022-08-03T20:39:20.395Z,31.08
2022-08-03T20:42:21.280Z,31.11
2022-08-03T20:45:14.060Z,31.11
2022-08-03T20:48:22.121Z,31.21
2022-08-03T20:51:19.357Z,31.11
2022-08-03T20:54:07.836Z,31.10
2022-08-03T20:57:15.693Z,31.09
2022-08-03T21:00:00.175Z,31.10
2022-08-03T21:02:48.448Z,31.25
2022-08-03T21:05:51.281Z,31.26
2022-08-03T21:08:39.243Z,31.41
2022-08-03T21:11:41.501Z,31.46
2022-08-03T21:12:54.576Z,31.95
2022-08-03T21:13:04.133Z,31.89
2022-08-03T21:13:13.133Z,31.51
2022-08-03T21:15:00.667Z,31.47
2022-08-03T21:17:50.115Z,31.50
2022-08-03T21:20:42.405Z,31.54
2022-08-03T21:23:45.415Z,31.58
2022-08-03T21:26:40.654Z,31.50
2022-08-03T21:29:24.155Z,31.36
2022-08-03T21:32:08.405Z,31.41
2022-08-03T21:35:01.147Z,31.33
2022-08-03T21:38:09.931Z,31.32
2022-08-03T21:40:52.150Z,31.27
2022-08-03T21:43:40.438Z,31.19
2022-08-03T21:46:26.172Z,31.26
2022-08-03T21:49:51.841Z,31.24
2022-08-03T21:52:21.177Z,31.10
2022-08-03T21:55:18.186Z,31.11
2022-08-03T21:58:07.365Z,30.98
2022-08-03T22:00:56.203Z,31.00
2022-08-03T22:03:52.868Z,31.08
2022-08-03T22:06:42.170Z,31.12
2022-08-03T22:09:24.448Z,30.92
2022-08-03T22:12:14.121Z,30.99
2022-08-03T22:15:00.200Z,31.02
2022-08-03T22:17:55.622Z,30.97
2022-08-03T22:20:40.612Z,30.88
2022-08-03T22:23:33.142Z,30.87
2022-08-03T22:26:34.991Z,30.91
2022-08-03T22:29:17.411Z,30.94
2022-08-03T22:32:06.133Z,30.86
2022-08-03T22:34:50.325Z,30.91
2022-08-03T22:37:44.119Z,30.90
2022-08-03T22:40:35.167Z,30.85
2022-08-03T22:43:31.236Z,30.91
2022-08-03T22:46:23.402Z,30.92
2022-08-03T22:49:06.656Z,30.88
2022-08-03T22:51:56.275Z,30.83
2022-08-03T22:54:47.395Z,30.88
2022-08-03T22:57:29.363Z,30.83
2022-08-03T23:00:26.422Z,30.81
2022-08-03T23:03:16.215Z,30.81
2022-08-03T23:06:05.463Z,30.81
2022-08-03T23:08:55.386Z,30.68
2022-08-03T23:11:38.017Z,30.75
2022-08-03T23:14:32.386Z,30.79
2022-08-03T23:17:15.769Z,30.81
2022-08-03T23:20:13.144Z,30.76
2022-08-03T23:22:56.313Z,30.79
2022-08-03T23:25:45.121Z,30.74
2022-08-03T23:28:28.674Z,30.76
2022-08-03T23:31:17.145Z,30.72
2022-08-03T23:34:19.183Z,30.71
2022-08-03T23:37:13.154Z,30.74
2022-08-03T23:39:56.593Z,30.66
2022-08-03T23:42:53.375Z,30.71
2022-08-03T23:45:47.608Z,30.71
2022-08-03T23:48:30.136Z,30.69
2022-08-03T23:51:27.675Z,30.71
2022-08-03T23:54:28.394Z,30.70
2022-08-03T23:57:22.398Z,30.77
